Cosgrave, Nevada
Current Conditions -  °F | °C
As of 4:56 PM on Tuesday 27 Jan 2015 (Local Time) from KWMC Reporting Station
Light Rain Light Rain  
Wind Chill: 35°   Ceiling: 2100
Heat Index: 41°   Visibility: 7mi
Dew Point: 37°   Wind: 10mph
Humidity: 86%   Direction: 240°WSW
Pressure: 30.17"   Gusts: NA
Location:  41.1353°N, 118.186°W
Report Text: KWMC 280056Z AUTO 24009KT 7SM -RA BKN021 BKN030 OVC034 05/03 A3017 RMK AO2 SLP223 P0001 T00500028
Loading
Personal Weather Stations






























Interactive Weather Map New forecast layout! Learn more

10-Day Weather Forecast

Advertisements
Track Severe Weather on mobile